Time;durP1;ratioP1;P1;durP2;ratioP2;P2;SDS_P1;SDS_P2;PMS_P1;PMS_P2;Temp;Humidity;BMP_temperature;BMP_pressure;BME280_temperature;BME280_humidity;BME280_pressure;Samples;Min_cycle;Max_cycle;Signal;HPM_P1;HPM_P2
2024/02/29 00:04:49;;;;;;;24.80;11.63;;;;;6.10;101055.00;;;;10371591;28;20223;-81
2024/02/29 00:09:50;;;;;;;15.43;9.03;;;;;6.10;101039.00;;;;10363216;28;20309;-82
2024/02/29 00:14:51;;;;;;;16.40;9.50;;;;;6.20;101021.00;;;;10368559;28;20214;-80
2024/02/29 00:19:52;;;;;;;18.03;10.30;;;;;6.20;101034.00;;;;10382583;28;20297;-81
2024/02/29 00:24:55;;;;;;;17.63;10.97;;;;;6.20;101029.00;;;;10377193;28;25615;-81
2024/02/29 00:29:56;;;;;;;23.90;11.97;;;;;6.20;101025.00;;;;10359407;28;20736;-80
2024/02/29 00:34:58;;;;;;;14.57;9.87;;;;;6.20;101023.00;;;;10371641;28;20215;-81
2024/02/29 00:39:59;;;;;;;16.50;11.20;;;;;6.20;101019.00;;;;10393070;28;20222;-80
2024/02/29 00:45:00;;;;;;;18.57;11.50;;;;;6.30;101008.00;;;;10383117;28;20214;-80
2024/02/29 00:50:02;;;;;;;17.00;10.67;;;;;6.30;101006.00;;;;10371643;28;20777;-80
2024/02/29 00:55:03;;;;;;;20.40;10.57;;;;;6.30;101000.00;;;;10365193;28;20771;-80
2024/02/29 01:00:07;;;;;;;22.97;12.00;;;;;6.30;100995.00;;;;10363699;28;20617;-79
2024/02/29 01:05:09;;;;;;;21.67;11.67;;;;;6.30;100989.00;;;;10382107;28;20881;-80
2024/02/29 01:10:11;;;;;;;17.07;10.63;;;;;6.50;100985.00;;;;10368726;28;20241;-79
2024/02/29 01:15:13;;;;;;;18.87;11.40;;;;;6.50;100980.00;;;;10359402;28;20218;-79
2024/02/29 01:20:14;;;;;;;14.97;9.40;;;;;6.60;100974.00;;;;10377159;28;20593;-79
2024/02/29 01:25:15;;;;;;;13.17;7.70;;;;;6.60;100973.00;;;;10380237;28;20257;-78
2024/02/29 01:30:16;;;;;;;18.60;11.00;;;;;6.60;100976.00;;;;10377899;28;20237;-77
2024/02/29 01:35:17;;;;;;;17.50;10.47;;;;;6.60;100959.00;;;;10376993;28;20218;-78
2024/02/29 01:40:19;;;;;;;18.40;10.57;;;;;6.60;100945.00;;;;10366933;28;20237;-79
2024/02/29 01:45:21;;;;;;;17.80;10.93;;;;;6.50;100944.00;;;;10389547;28;20743;-78
2024/02/29 01:50:23;;;;;;;18.73;11.00;;;;;6.40;100920.00;;;;10368054;28;20301;-77
2024/02/29 01:55:24;;;;;;;14.93;7.67;;;;;6.40;100923.00;;;;10363811;28;20219;-79
2024/02/29 02:00:25;;;;;;;18.87;11.53;;;;;6.50;100924.00;;;;10392652;28;20786;-77
2024/02/29 02:05:26;;;;;;;16.93;8.70;;;;;6.50;100918.00;;;;10383502;28;20226;-78
2024/02/29 02:10:27;;;;;;;17.97;11.00;;;;;6.60;100905.00;;;;10368252;28;20253;-79
2024/02/29 02:15:30;;;;;;;18.30;11.20;;;;;6.60;100909.00;;;;10372792;28;20301;-78
2024/02/29 02:20:31;;;;;;;17.57;11.60;;;;;6.60;100893.00;;;;10397961;28;20696;-78
2024/02/29 02:25:32;;;;;;;12.43;8.33;;;;;6.50;100892.00;;;;10438585;28;20219;-78
2024/02/29 02:30:33;;;;;;;21.53;10.10;;;;;6.50;100863.00;;;;10419677;28;20222;-77
2024/02/29 02:35:34;;;;;;;18.00;11.53;;;;;6.50;100848.00;;;;10381130;28;20945;-78
2024/02/29 02:40:36;;;;;;;16.17;9.27;;;;;6.50;100843.00;;;;10367337;28;20850;-79
2024/02/29 02:45:37;;;;;;;18.17;11.37;;;;;6.60;100832.00;;;;10368287;28;20246;-79
2024/02/29 02:50:38;;;;;;;16.27;10.33;;;;;6.70;100820.00;;;;10350182;28;20229;-79
2024/02/29 02:55:39;;;;;;;18.33;10.53;;;;;6.80;100804.00;;;;10397988;28;20233;-79
2024/02/29 03:00:40;;;;;;;17.13;10.37;;;;;6.80;100797.00;;;;10378309;28;20828;-79
2024/02/29 03:05:42;;;;;;;15.97;9.33;;;;;6.90;100784.00;;;;10360390;28;20265;-78
2024/02/29 03:10:43;;;;;;;8.40;6.03;;;;;7.00;100775.00;;;;10354832;28;20608;-79
2024/02/29 03:15:44;;;;;;;11.50;8.20;;;;;7.10;100773.00;;;;10381302;28;20218;-79
2024/02/29 03:20:45;;;;;;;13.83;9.07;;;;;7.20;100770.00;;;;10379269;28;20228;-78
2024/02/29 03:25:47;;;;;;;15.37;7.93;;;;;7.20;100762.00;;;;10381495;28;20233;-81
2024/02/29 03:30:49;;;;;;;11.20;8.07;;;;;7.30;100771.00;;;;10370003;28;20222;-77
2024/02/29 03:35:51;;;;;;;11.13;7.13;;;;;7.30;100766.00;;;;10383431;28;20211;-77
2024/02/29 03:40:52;;;;;;;14.33;8.30;;;;;7.40;100755.00;;;;10373406;28;20223;-78
2024/02/29 03:45:53;;;;;;;13.53;6.97;;;;;7.40;100762.00;;;;10376201;28;20215;-77
2024/02/29 03:50:54;;;;;;;17.13;8.17;;;;;7.40;100742.00;;;;10399634;28;20222;-78
2024/02/29 03:55:55;;;;;;;13.83;8.20;;;;;7.30;100749.00;;;;10397300;28;20670;-78
2024/02/29 04:00:56;;;;;;;18.17;8.80;;;;;7.30;100746.00;;;;10371184;28;20826;-77
2024/02/29 04:05:58;;;;;;;13.57;7.80;;;;;7.30;100750.00;;;;10370670;28;20227;-78
2024/02/29 04:10:59;;;;;;;14.73;8.97;;;;;7.30;100742.00;;;;10380405;28;20215;-77
2024/02/29 04:16:02;;;;;;;15.30;9.80;;;;;7.40;100723.00;;;;10365020;28;20302;-78
2024/02/29 04:21:03;;;;;;;13.70;8.80;;;;;7.40;100725.00;;;;10370672;28;20230;-76
2024/02/29 04:26:04;;;;;;;13.83;8.23;;;;;7.50;100716.00;;;;10362316;28;20218;-77
2024/02/29 04:31:06;;;;;;;12.90;8.43;;;;;7.50;100714.00;;;;10394815;28;20309;-79
2024/02/29 04:36:07;;;;;;;11.67;7.73;;;;;7.50;100703.00;;;;10355100;28;21021;-78
2024/02/29 04:41:08;;;;;;;11.97;7.83;;;;;7.50;100702.00;;;;10397253;28;20226;-78
2024/02/29 04:46:09;;;;;;;14.30;8.53;;;;;7.50;100699.00;;;;10380744;28;20222;-79
2024/02/29 04:51:10;;;;;;;16.67;9.20;;;;;7.50;100694.00;;;;10389724;28;20318;-78
2024/02/29 04:56:11;;;;;;;16.90;9.37;;;;;7.50;100692.00;;;;10361841;28;20250;-78
2024/02/29 05:01:13;;;;;;;17.03;8.73;;;;;7.50;100683.00;;;;10377656;28;20314;-79
2024/02/29 05:06:16;;;;;;;19.27;9.63;;;;;7.50;100686.00;;;;10382159;28;20466;-78
2024/02/29 05:11:17;;;;;;;13.13;8.10;;;;;7.50;100676.00;;;;10391693;28;20226;-78
2024/02/29 05:16:20;;;;;;;14.20;8.67;;;;;7.50;100673.00;;;;10379506;28;20250;-80
2024/02/29 05:21:21;;;;;;;13.03;7.43;;;;;7.50;100664.00;;;;10396303;28;20697;-78
2024/02/29 05:26:22;;;;;;;13.80;9.00;;;;;7.50;100672.00;;;;10377184;28;20868;-78
2024/02/29 05:31:23;;;;;;;16.77;9.60;;;;;7.50;100667.00;;;;10363631;28;20218;-78
2024/02/29 05:36:24;;;;;;;14.20;8.90;;;;;7.60;100672.00;;;;10372986;28;20234;-79
2024/02/29 05:41:26;;;;;;;17.93;8.77;;;;;7.60;100659.00;;;;10392091;28;20229;-80
2024/02/29 05:46:27;;;;;;;14.93;9.10;;;;;7.60;100659.00;;;;10393411;28;20218;-79
2024/02/29 05:51:28;;;;;;;18.63;10.10;;;;;7.60;100655.00;;;;10382789;28;20219;-79
2024/02/29 05:56:29;;;;;;;14.63;8.43;;;;;7.50;100651.00;;;;10368371;28;20211;-79
2024/02/29 06:01:30;;;;;;;16.93;8.53;;;;;7.50;100653.00;;;;10375764;28;20298;-78
2024/02/29 06:06:31;;;;;;;14.17;8.57;;;;;7.50;100640.00;;;;10391961;28;20226;-79
2024/02/29 06:11:32;;;;;;;14.77;8.30;;;;;7.50;100633.00;;;;10359794;28;20822;-78
2024/02/29 06:16:34;;;;;;;14.57;8.70;;;;;7.60;100622.00;;;;10377717;28;20229;-78
2024/02/29 06:21:35;;;;;;;15.23;8.97;;;;;7.60;100613.00;;;;10361959;28;21581;-79
2024/02/29 06:26:36;;;;;;;14.10;8.47;;;;;7.60;100611.00;;;;10370825;28;20226;-78
2024/02/29 06:31:37;;;;;;;20.57;8.40;;;;;7.70;100616.00;;;;10361947;28;20238;-79
2024/02/29 06:36:38;;;;;;;13.50;8.30;;;;;7.70;100612.00;;;;10380237;28;20215;-78
2024/02/29 06:41:43;;;;;;;14.27;6.90;;;;;7.80;100618.00;;;;10366754;28;20969;-79
2024/02/29 06:46:44;;;;;;;15.37;8.30;;;;;7.80;100616.00;;;;10397489;28;20258;-79
2024/02/29 06:51:46;;;;;;;13.70;7.30;;;;;7.80;100608.00;;;;10351650;28;20214;-79
2024/02/29 06:56:47;;;;;;;18.03;10.07;;;;;7.90;100614.00;;;;10341300;28;20253;-78
2024/02/29 07:01:48;;;;;;;13.03;8.07;;;;;7.90;100594.00;;;;10368324;28;20218;-77
2024/02/29 07:06:50;;;;;;;11.20;7.07;;;;;8.00;100600.00;;;;10375659;28;20219;-78
2024/02/29 07:11:51;;;;;;;9.60;6.83;;;;;8.10;100595.00;;;;10363807;28;20226;-77
2024/02/29 07:16:52;;;;;;;15.10;8.33;;;;;8.20;100599.00;;;;10379275;28;20316;-76
2024/02/29 07:21:53;;;;;;;13.00;6.87;;;;;8.20;100595.00;;;;10382192;28;20225;-77
2024/02/29 07:26:56;;;;;;;14.33;8.57;;;;;8.20;100593.00;;;;10344838;28;20214;-77
2024/02/29 07:31:57;;;;;;;17.07;9.20;;;;;8.10;100583.00;;;;10362151;28;20553;-77
2024/02/29 07:36:58;;;;;;;12.23;7.47;;;;;8.10;100581.00;;;;10375685;28;20237;-78
2024/02/29 07:41:59;;;;;;;14.07;9.07;;;;;8.20;100575.00;;;;10347513;28;20223;-78
2024/02/29 07:47:01;;;;;;;13.63;8.67;;;;;8.30;100570.00;;;;10374488;28;20215;-78
2024/02/29 07:52:04;;;;;;;13.07;8.67;;;;;8.30;100566.00;;;;10359470;28;20215;-79
2024/02/29 07:57:05;;;;;;;13.70;8.83;;;;;8.40;100560.00;;;;10376064;28;20223;-78
2024/02/29 08:02:07;;;;;;;13.90;8.67;;;;;8.50;100550.00;;;;10392313;28;20227;-78
2024/02/29 08:07:10;;;;;;;14.40;8.03;;;;;8.50;100552.00;;;;10333000;28;20299;-77
2024/02/29 08:12:12;;;;;;;16.37;9.53;;;;;8.60;100552.00;;;;10374333;28;20246;-78
2024/02/29 08:17:13;;;;;;;14.60;9.00;;;;;8.70;100536.00;;;;10372136;28;20230;-78
2024/02/29 08:22:14;;;;;;;15.87;9.13;;;;;8.80;100537.00;;;;10373299;28;20249;-76
2024/02/29 08:27:16;;;;;;;16.67;9.57;;;;;8.90;100540.00;;;;10388103;28;20588;-77
2024/02/29 08:32:17;;;;;;;8.50;6.40;;;;;8.90;100533.00;;;;10357018;28;21224;-76
2024/02/29 08:37:18;;;;;;;14.60;9.83;;;;;8.90;100531.00;;;;10382942;28;20261;-80
2024/02/29 08:42:20;;;;;;;14.23;9.80;;;;;8.90;100524.00;;;;10391463;28;20332;-77
2024/02/29 08:47:21;;;;;;;13.47;8.63;;;;;8.90;100510.00;;;;10389776;28;20234;-77
2024/02/29 08:52:22;;;;;;;16.70;9.10;;;;;9.00;100520.00;;;;10373192;28;20227;-77
2024/02/29 08:57:23;;;;;;;16.60;9.03;;;;;9.10;100520.00;;;;10377176;28;20245;-77
2024/02/29 09:02:25;;;;;;;12.10;8.20;;;;;9.10;100515.00;;;;10351465;28;20296;-77
2024/02/29 09:07:26;;;;;;;22.90;11.67;;;;;9.10;100508.00;;;;10391724;28;20238;-76
2024/02/29 09:12:27;;;;;;;16.40;10.03;;;;;9.20;100504.00;;;;10354281;28;20237;-79
2024/02/29 09:17:28;;;;;;;14.20;9.83;;;;;9.20;100493.00;;;;10366844;28;20233;-80
2024/02/29 09:22:29;;;;;;;18.90;9.80;;;;;9.30;100488.00;;;;10369936;28;20288;-80
2024/02/29 09:27:30;;;;;;;15.70;9.53;;;;;9.40;100484.00;;;;10372629;28;20238;-79
2024/02/29 09:32:32;;;;;;;13.83;9.73;;;;;9.50;100478.00;;;;10375002;28;21309;-78
2024/02/29 09:37:33;;;;;;;15.70;10.27;;;;;9.50;100475.00;;;;10381451;28;20249;-80
2024/02/29 09:42:36;;;;;;;13.27;7.83;;;;;9.40;100462.00;;;;10387434;28;20302;-81
2024/02/29 09:47:39;;;;;;;14.10;9.27;;;;;9.40;100470.00;;;;10353070;28;20291;-78
2024/02/29 09:52:42;;;;;;;17.10;9.87;;;;;9.50;100460.00;;;;10372655;28;20260;-79
2024/02/29 09:57:45;;;;;;;15.83;11.10;;;;;9.40;100459.00;;;;10391261;28;20345;-78
2024/02/29 10:02:48;;;;;;;15.07;10.30;;;;;9.40;100461.00;;;;10397524;28;20218;-79
2024/02/29 10:07:52;;;;;;;14.30;9.43;;;;;9.40;100457.00;;;;10394308;28;20217;-79
2024/02/29 10:12:54;;;;;;;16.83;10.13;;;;;9.50;100456.00;;;;10410954;28;20238;-79
2024/02/29 10:17:56;;;;;;;16.07;10.07;;;;;9.50;100452.00;;;;10374531;28;20246;-78
2024/02/29 10:22:58;;;;;;;19.60;11.30;;;;;9.50;100446.00;;;;10398332;28;20842;-79
2024/02/29 10:28:04;;;;;;;15.17;10.13;;;;;9.30;100439.00;;;;10388313;28;20222;-76
2024/02/29 10:33:10;;;;;;;15.97;9.90;;;;;9.00;100432.00;;;;10408654;28;21395;-77
2024/02/29 10:38:11;;;;;;;14.97;9.43;;;;;8.90;100431.00;;;;10386531;28;20338;-78
2024/02/29 10:43:12;;;;;;;13.87;9.43;;;;;9.00;100425.00;;;;10367688;28;20280;-78
2024/02/29 10:48:20;;;;;;;15.80;9.67;;;;;9.10;100418.00;;;;10362469;28;20697;-78
2024/02/29 10:53:50;;;;;;;10.03;7.43;;;;;9.00;100417.00;;;;10356637;28;20774;-77
2024/02/29 10:59:07;;;;;;;15.07;9.70;;;;;8.90;100414.00;;;;10387768;28;20311;-77
2024/02/29 11:04:09;;;;;;;12.60;8.97;;;;;8.90;100421.00;;;;10379993;28;20869;-79
2024/02/29 11:09:12;;;;;;;17.57;9.93;;;;;8.80;100411.00;;;;10388425;28;20301;-77
2024/02/29 11:14:17;;;;;;;14.33;8.60;;;;;8.90;100399.00;;;;10353168;28;20222;-78
2024/02/29 11:19:18;;;;;;;15.80;8.90;;;;;9.10;100387.00;;;;10370913;28;20323;-78
2024/02/29 11:24:20;;;;;;;13.20;7.97;;;;;9.30;100392.00;;;;10370096;28;20230;-77
2024/02/29 11:29:24;;;;;;;13.30;8.33;;;;;9.70;100385.00;;;;10362351;28;20754;-76
2024/02/29 11:34:27;;;;;;;11.20;7.47;;;;;10.00;100377.00;;;;10344683;28;20222;-76
2024/02/29 11:39:29;;;;;;;10.60;7.17;;;;;10.20;100364.00;;;;10376113;28;20226;-80
2024/02/29 11:44:31;;;;;;;11.60;7.40;;;;;10.40;100362.00;;;;10379782;28;20306;-81
2024/02/29 11:49:33;;;;;;;8.87;7.27;;;;;10.60;100344.00;;;;10333847;28;20226;-80
2024/02/29 11:54:34;;;;;;;9.47;6.63;;;;;10.80;100336.00;;;;10330311;28;21027;-81
2024/02/29 11:59:42;;;;;;;9.50;6.67;;;;;11.10;100335.00;;;;10345541;28;20235;-81
2024/02/29 12:04:45;;;;;;;10.00;6.90;;;;;11.00;100323.00;;;;10366887;28;20334;-80
2024/02/29 12:09:46;;;;;;;7.83;5.57;;;;;10.80;100314.00;;;;10384552;28;20745;-81
2024/02/29 12:14:47;;;;;;;8.17;6.43;;;;;10.80;100313.00;;;;10411805;28;20213;-81
2024/02/29 12:19:51;;;;;;;6.80;5.40;;;;;10.80;100305.00;;;;10377256;28;20266;-81
2024/02/29 12:24:52;;;;;;;11.20;6.43;;;;;10.60;100299.00;;;;10331232;28;20257;-80
2024/02/29 12:29:54;;;;;;;8.43;5.57;;;;;10.50;100292.00;;;;10371090;28;20312;-81
2024/02/29 12:34:56;;;;;;;7.00;5.60;;;;;10.30;100287.00;;;;10372616;28;20226;-81
2024/02/29 12:39:59;;;;;;;7.57;5.70;;;;;10.30;100270.00;;;;10370323;28;20321;-79
2024/02/29 12:45:01;;;;;;;8.00;5.00;;;;;10.40;100263.00;;;;10365066;28;20219;-80
2024/02/29 12:50:04;;;;;;;6.57;5.53;;;;;10.60;100254.00;;;;10364420;28;20231;-79
2024/02/29 12:55:05;;;;;;;13.77;6.67;;;;;10.70;100249.00;;;;10365878;28;20231;-79
2024/02/29 13:00:17;;;;;;;7.27;4.67;;;;;10.50;100245.00;;;;10351357;28;20232;-80
2024/02/29 13:05:19;;;;;;;8.93;5.37;;;;;10.30;100234.00;;;;10363374;28;20230;-80
2024/02/29 13:10:22;;;;;;;7.03;5.17;;;;;10.40;100229.00;;;;10332359;28;20854;-81
2024/02/29 13:15:23;;;;;;;6.67;5.20;;;;;10.40;100210.00;;;;10328244;28;20231;-78
2024/02/29 13:20:25;;;;;;;6.77;5.23;;;;;10.30;100213.00;;;;10368279;28;20790;-79
2024/02/29 13:25:26;;;;;;;7.43;4.70;;;;;10.20;100198.00;;;;10349522;28;20222;-79
2024/02/29 13:30:27;;;;;;;7.17;5.20;;;;;10.30;100180.00;;;;10368492;28;20220;-80
2024/02/29 13:35:28;;;;;;;7.43;5.23;;;;;10.30;100169.00;;;;10367837;28;20218;-79
2024/02/29 13:40:29;;;;;;;8.07;6.17;;;;;10.30;100158.00;;;;10355151;28;20223;-79
2024/02/29 13:45:36;;;;;;;6.47;4.93;;;;;10.40;100148.00;;;;10380275;28;20234;-78
2024/02/29 13:50:38;;;;;;;9.17;4.97;;;;;10.20;100149.00;;;;10381586;28;20629;-78
2024/02/29 13:55:39;;;;;;;12.40;5.13;;;;;10.00;100135.00;;;;10359608;28;20282;-80
2024/02/29 14:00:40;;;;;;;9.93;5.17;;;;;10.00;100128.00;;;;10334804;28;20647;-80
2024/02/29 14:05:41;;;;;;;25.83;5.80;;;;;10.00;100118.00;;;;10363387;28;20227;-82
2024/02/29 14:10:43;;;;;;;15.27;5.00;;;;;10.00;100110.00;;;;10348083;28;20222;-83
2024/02/29 14:15:44;;;;;;;23.33;7.03;;;;;10.00;100107.00;;;;10351586;28;20696;-83
2024/02/29 14:20:45;;;;;;;6.17;5.23;;;;;9.90;100096.00;;;;10344767;28;20227;-83
2024/02/29 14:25:46;;;;;;;12.67;5.13;;;;;9.80;100096.00;;;;10350601;28;20310;-81
2024/02/29 14:30:48;;;;;;;22.03;7.13;;;;;9.60;100090.00;;;;10360869;28;20219;-83
2024/02/29 14:35:49;;;;;;;25.93;6.60;;;;;9.70;100083.00;;;;10309761;28;21006;-83
2024/02/29 14:40:50;;;;;;;8.50;4.77;;;;;9.70;100073.00;;;;10356933;28;20241;-82
2024/02/29 14:45:51;;;;;;;7.43;4.87;;;;;9.60;100074.00;;;;10338472;28;20318;-83
2024/02/29 14:50:52;;;;;;;5.90;4.73;;;;;9.50;100062.00;;;;10340529;28;20244;-85
2024/02/29 14:55:54;;;;;;;6.63;4.90;;;;;9.60;100050.00;;;;10339706;28;20292;-83
2024/02/29 15:00:55;;;;;;;5.37;4.43;;;;;9.60;100044.00;;;;10372080;28;20222;-81
2024/02/29 15:05:56;;;;;;;37.03;7.67;;;;;9.60;100039.00;;;;10379111;28;20913;-77
2024/02/29 15:10:57;;;;;;;9.37;4.57;;;;;9.50;100038.00;;;;10363363;28;20226;-80
2024/02/29 15:15:58;;;;;;;17.63;5.10;;;;;9.50;100039.00;;;;10359254;28;20222;-77
2024/02/29 15:21:00;;;;;;;12.93;4.70;;;;;9.50;100039.00;;;;10353804;28;20223;-77
2024/02/29 15:26:09;;;;;;;13.00;5.03;;;;;9.50;100031.00;;;;10370881;28;20225;-76
2024/02/29 15:31:10;;;;;;;5.13;4.33;;;;;9.40;100017.00;;;;10367154;28;20368;-76
2024/02/29 15:36:11;;;;;;;8.43;4.90;;;;;9.30;99994.00;;;;10356193;28;20327;-77
2024/02/29 15:41:12;;;;;;;7.83;4.03;;;;;9.30;100000.00;;;;10349732;28;20345;-80
2024/02/29 15:46:13;;;;;;;5.57;4.33;;;;;9.20;99988.00;;;;10344149;28;20222;-77
2024/02/29 15:51:14;;;;;;;8.53;4.37;;;;;9.20;99982.00;;;;10361750;28;20804;-77
2024/02/29 15:56:16;;;;;;;6.57;4.03;;;;;9.10;99981.00;;;;10347188;28;20250;-77
2024/02/29 16:01:17;;;;;;;5.07;3.97;;;;;9.10;99972.00;;;;10367554;28;20239;-76
2024/02/29 16:06:18;;;;;;;7.00;4.07;;;;;9.10;99963.00;;;;10375545;28;20928;-77
2024/02/29 16:11:22;;;;;;;5.27;4.10;;;;;9.00;99958.00;;;;10331082;28;20237;-78
2024/02/29 16:16:23;;;;;;;5.53;4.00;;;;;9.00;99955.00;;;;10342007;28;20231;-79
2024/02/29 16:21:24;;;;;;;7.13;4.03;;;;;8.90;99948.00;;;;10381783;28;20234;-79
2024/02/29 16:26:25;;;;;;;6.93;4.37;;;;;8.80;99943.00;;;;10359640;28;20261;-79
2024/02/29 16:31:27;;;;;;;5.67;3.27;;;;;8.80;99936.00;;;;10343926;28;20265;-80
2024/02/29 16:36:28;;;;;;;6.23;3.63;;;;;8.80;99925.00;;;;10362739;28;20610;-78
2024/02/29 16:41:29;;;;;;;4.63;4.10;;;;;8.70;99919.00;;;;10350899;28;20302;-78
2024/02/29 16:46:30;;;;;;;4.37;3.00;;;;;8.70;99917.00;;;;10359058;28;20234;-78
2024/02/29 16:51:31;;;;;;;5.20;3.93;;;;;8.70;99911.00;;;;10335350;28;20222;-78
2024/02/29 16:56:33;;;;;;;3.80;3.40;;;;;8.70;99914.00;;;;10379396;28;20222;-77
2024/02/29 17:01:34;;;;;;;4.73;4.10;;;;;8.70;99904.00;;;;10357071;28;20227;-78
2024/02/29 17:06:35;;;;;;;6.60;4.37;;;;;8.70;99906.00;;;;10368459;28;20305;-77
2024/02/29 17:11:36;;;;;;;5.50;4.30;;;;;8.70;99898.00;;;;10314101;28;20314;-78
2024/02/29 17:16:38;;;;;;;5.73;4.30;;;;;8.80;99896.00;;;;10362589;28;20223;-77
2024/02/29 17:21:39;;;;;;;4.33;3.93;;;;;8.80;99898.00;;;;10327350;28;20273;-78
2024/02/29 17:26:43;;;;;;;7.00;4.80;;;;;8.80;99894.00;;;;10326073;28;20229;-81
2024/02/29 17:31:45;;;;;;;7.77;4.93;;;;;8.80;99898.00;;;;10320016;28;20215;-83
2024/02/29 17:36:46;;;;;;;5.57;4.57;;;;;8.80;99895.00;;;;10338050;28;20241;-81
2024/02/29 17:41:47;;;;;;;8.47;6.57;;;;;8.80;99884.00;;;;10360469;28;20710;-82
2024/02/29 17:46:48;;;;;;;6.40;4.97;;;;;8.80;99895.00;;;;10364233;28;20311;-81
2024/02/29 17:51:49;;;;;;;7.00;5.63;;;;;8.80;99896.00;;;;10348563;28;20265;-81
2024/02/29 17:56:51;;;;;;;7.73;5.40;;;;;8.90;99889.00;;;;10339133;28;20554;-82
2024/02/29 18:01:52;;;;;;;7.80;4.90;;;;;8.90;99866.00;;;;10378081;28;20232;-82
2024/02/29 18:06:54;;;;;;;6.07;4.70;;;;;8.90;99868.00;;;;10359542;28;20218;-81
2024/02/29 18:11:55;;;;;;;6.67;4.63;;;;;8.90;99864.00;;;;10362354;28;20214;-82
2024/02/29 18:16:56;;;;;;;6.40;5.23;;;;;8.90;99860.00;;;;10347965;28;20936;-82
2024/02/29 18:21:58;;;;;;;6.83;6.10;;;;;8.80;99854.00;;;;10353493;28;20732;-82
2024/02/29 18:26:59;;;;;;;6.63;5.87;;;;;8.80;99849.00;;;;10348812;28;20252;-81
2024/02/29 18:32:01;;;;;;;8.10;6.50;;;;;8.80;99850.00;;;;10336044;28;20225;-83
2024/02/29 18:37:03;;;;;;;6.40;5.60;;;;;8.70;99838.00;;;;10394340;28;20218;-86
2024/02/29 18:42:04;;;;;;;8.83;6.33;;;;;8.70;99837.00;;;;10372295;28;20246;-86
2024/02/29 18:47:05;;;;;;;7.43;5.70;;;;;8.70;99831.00;;;;10374907;28;20219;-85
2024/02/29 18:52:07;;;;;;;8.67;5.60;;;;;8.70;99828.00;;;;10351904;28;20242;-85
2024/02/29 18:57:08;;;;;;;6.40;5.80;;;;;8.70;99825.00;;;;10376503;28;20309;-86
2024/02/29 19:02:09;;;;;;;7.57;5.83;;;;;8.60;99823.00;;;;10371449;28;20302;-87
2024/02/29 19:07:10;;;;;;;7.60;6.20;;;;;8.60;99818.00;;;;10364695;28;20222;-85
2024/02/29 19:12:12;;;;;;;7.03;5.70;;;;;8.60;99817.00;;;;10368692;28;20232;-85
2024/02/29 19:17:13;;;;;;;11.07;6.27;;;;;8.60;99800.00;;;;10367819;28;20322;-87
2024/02/29 19:22:14;;;;;;;6.73;5.40;;;;;8.60;99805.00;;;;10378773;28;20265;-89
2024/02/29 19:27:15;;;;;;;5.90;5.20;;;;;8.60;99802.00;;;;10347430;28;20218;-86
2024/02/29 19:32:16;;;;;;;6.17;5.20;;;;;8.70;99795.00;;;;10370883;28;20285;-86
2024/02/29 19:37:17;;;;;;;6.13;5.53;;;;;8.70;99787.00;;;;10370889;28;20775;-86
2024/02/29 19:42:19;;;;;;;5.70;4.57;;;;;8.70;99777.00;;;;10329153;28;20562;-86
2024/02/29 19:47:22;;;;;;;7.60;4.40;;;;;8.70;99777.00;;;;10309156;28;20319;-81
2024/02/29 19:52:24;;;;;;;5.03;4.53;;;;;8.70;99774.00;;;;10343212;28;20843;-79
2024/02/29 19:57:27;;;;;;;5.00;4.50;;;;;8.70;99761.00;;;;10364081;28;20222;-80
2024/02/29 20:02:29;;;;;;;6.87;5.00;;;;;8.80;99768.00;;;;10373043;28;20250;-79
2024/02/29 20:07:31;;;;;;;4.53;3.90;;;;;8.80;99766.00;;;;10352703;28;20226;-78
2024/02/29 20:12:33;;;;;;;4.23;3.83;;;;;8.80;99762.00;;;;10372028;28;20222;-79
2024/02/29 20:17:34;;;;;;;4.57;4.10;;;;;8.90;99748.00;;;;10353439;28;20628;-79
2024/02/29 20:22:35;;;;;;;5.67;4.10;;;;;8.90;99759.00;;;;10365592;28;20214;-82
2024/02/29 20:27:36;;;;;;;4.43;4.03;;;;;8.90;99758.00;;;;10362657;28;20223;-79
2024/02/29 20:32:40;;;;;;;5.03;3.07;;;;;9.00;99754.00;;;;10348378;28;20227;-79
2024/02/29 20:37:41;;;;;;;4.13;3.43;;;;;9.00;99745.00;;;;10351144;28;20763;-79
2024/02/29 20:42:44;;;;;;;3.90;3.27;;;;;9.00;99747.00;;;;10345583;28;20244;-80
2024/02/29 20:47:46;;;;;;;4.30;3.90;;;;;9.10;99734.00;;;;10350342;28;20218;-79
2024/02/29 20:52:47;;;;;;;4.50;3.57;;;;;9.10;99742.00;;;;10315077;28;20294;-81
2024/02/29 20:57:48;;;;;;;4.03;3.63;;;;;9.10;99730.00;;;;10340795;28;20214;-79
2024/02/29 21:02:49;;;;;;;3.83;3.43;;;;;9.20;99720.00;;;;10345108;28;20300;-79
2024/02/29 21:07:50;;;;;;;6.97;4.03;;;;;9.20;99715.00;;;;10337912;28;20223;-79
2024/02/29 21:12:55;;;;;;;5.03;4.40;;;;;9.20;99706.00;;;;10355415;28;20223;-79
2024/02/29 21:17:57;;;;;;;4.63;4.10;;;;;9.30;99704.00;;;;10386461;28;20229;-78
2024/02/29 21:22:58;;;;;;;4.07;3.63;;;;;9.30;99698.00;;;;10356412;28;20226;-78
2024/02/29 21:27:59;;;;;;;3.77;3.47;;;;;9.30;99686.00;;;;10341343;28;20293;-78
2024/02/29 21:33:02;;;;;;;4.00;3.63;;;;;9.30;99688.00;;;;10379388;28;20355;-78
2024/02/29 21:38:03;;;;;;;3.77;3.20;;;;;9.30;99669.00;;;;10335665;28;20594;-77
2024/02/29 21:43:04;;;;;;;4.07;3.57;;;;;9.30;99678.00;;;;10347598;28;20218;-79
2024/02/29 21:48:06;;;;;;;5.93;4.47;;;;;9.30;99668.00;;;;10368157;28;20265;-78
2024/02/29 21:53:07;;;;;;;4.43;3.90;;;;;9.40;99664.00;;;;10367126;28;20309;-78
2024/02/29 21:58:08;;;;;;;4.53;4.00;;;;;9.40;99664.00;;;;10368920;28;20276;-78
2024/02/29 22:03:10;;;;;;;5.77;4.60;;;;;9.40;99657.00;;;;10339596;28;20223;-78
2024/02/29 22:08:11;;;;;;;4.37;3.97;;;;;9.40;99657.00;;;;10329041;28;20314;-75
2024/02/29 22:13:12;;;;;;;5.77;4.23;;;;;9.40;99649.00;;;;10374304;28;20751;-77
2024/02/29 22:18:13;;;;;;;5.10;4.60;;;;;9.40;99640.00;;;;10376583;28;20238;-76
2024/02/29 22:23:15;;;;;;;4.60;4.20;;;;;9.40;99641.00;;;;10366276;28;20234;-76
2024/02/29 22:28:16;;;;;;;5.60;4.67;;;;;9.40;99634.00;;;;10361478;28;20256;-76
2024/02/29 22:33:17;;;;;;;4.73;4.33;;;;;9.40;99631.00;;;;10368268;28;20309;-78
2024/02/29 22:38:19;;;;;;;6.87;5.10;;;;;9.40;99623.00;;;;10353970;28;20226;-76
2024/02/29 22:43:20;;;;;;;5.83;5.23;;;;;9.40;99626.00;;;;10379650;28;20733;-77
2024/02/29 22:48:21;;;;;;;6.30;5.00;;;;;9.40;99625.00;;;;10348909;28;20324;-76
2024/02/29 22:53:22;;;;;;;7.07;4.50;;;;;9.40;99608.00;;;;10381921;28;20325;-77
2024/02/29 22:58:23;;;;;;;5.67;5.07;;;;;9.40;99597.00;;;;10347210;28;20807;-77
2024/02/29 23:03:25;;;;;;;5.63;3.53;;;;;9.40;99593.00;;;;10367081;28;20310;-77
2024/02/29 23:08:26;;;;;;;5.33;4.63;;;;;9.40;99586.00;;;;10334304;28;20215;-76
2024/02/29 23:13:27;;;;;;;6.87;4.83;;;;;9.50;99589.00;;;;10326200;28;20219;-77
2024/02/29 23:18:28;;;;;;;5.13;4.63;;;;;9.50;99593.00;;;;10346838;28;20262;-76
2024/02/29 23:23:29;;;;;;;5.13;4.60;;;;;9.50;99601.00;;;;10335894;28;20234;-77
2024/02/29 23:28:30;;;;;;;6.20;4.77;;;;;9.50;99581.00;;;;10359566;28;20834;-77
2024/02/29 23:33:31;;;;;;;5.37;4.50;;;;;9.50;99573.00;;;;10355044;28;20909;-76
2024/02/29 23:38:33;;;;;;;5.50;4.57;;;;;9.50;99571.00;;;;10367666;28;20227;-76
2024/02/29 23:43:34;;;;;;;7.27;4.73;;;;;9.50;99568.00;;;;10331218;28;20226;-76
2024/02/29 23:48:35;;;;;;;5.30;4.50;;;;;9.50;99565.00;;;;10347384;28;20229;-76
2024/02/29 23:53:36;;;;;;;6.97;4.77;;;;;9.60;99552.00;;;;10348078;28;20688;-76
2024/02/29 23:58:37;;;;;;;5.67;4.53;;;;;9.60;99556.00;;;;10376743;28;20678;-75
